createdAt,value
2023-04-08T00:00:00.202Z,99852.00
2023-04-08T00:01:33.504Z,99846.00
2023-04-08T00:03:06.793Z,99859.00
2023-04-08T00:04:40.454Z,99850.00
2023-04-08T00:06:14.984Z,99854.00
2023-04-08T00:07:47.318Z,99859.00
2023-04-08T00:09:20.877Z,99854.00
2023-04-08T00:10:53.994Z,99854.00
2023-04-08T00:12:26.393Z,99861.00
2023-04-08T00:13:59.557Z,99862.00
2023-04-08T00:15:31.837Z,99846.00
2023-04-08T00:17:05.215Z,99853.00
2023-04-08T00:18:39.119Z,99856.00
2023-04-08T00:20:12.596Z,99854.00
2023-04-08T00:21:47.533Z,99862.00
2023-04-08T00:23:21.307Z,99857.00
2023-04-08T00:24:54.663Z,99856.00
2023-04-08T00:26:27.840Z,99868.00
2023-04-08T00:28:00.286Z,99868.00
2023-04-08T00:29:33.803Z,99873.00
2023-04-08T00:31:07.105Z,99871.00
2023-04-08T00:32:40.318Z,99880.00
2023-04-08T00:34:13.601Z,99875.00
2023-04-08T00:35:47.229Z,99869.00
2023-04-08T00:37:23.147Z,99873.00
2023-04-08T00:38:56.480Z,99879.00
2023-04-08T00:40:28.855Z,99874.00
2023-04-08T00:42:02.579Z,99875.00
2023-04-08T00:43:36.195Z,99872.00
2023-04-08T00:45:11.129Z,99883.00
2023-04-08T00:46:44.532Z,99876.00
2023-04-08T00:48:17.732Z,99872.00
2023-04-08T00:49:50.426Z,99875.00
2023-04-08T00:51:23.691Z,99879.00
2023-04-08T00:52:58.385Z,99872.00
2023-04-08T00:54:31.514Z,99885.00
2023-04-08T00:56:05.586Z,99882.00
2023-04-08T00:57:38.688Z,99888.00
2023-04-08T00:59:12.072Z,99885.00
2023-04-08T01:00:56.647Z,99884.00
2023-04-08T01:02:40.467Z,99880.00
2023-04-08T01:04:29.945Z,99881.00
2023-04-08T01:06:14.364Z,99883.00
2023-04-08T01:07:50.712Z,99883.00
2023-04-08T01:09:31.121Z,99884.00
2023-04-08T01:11:09.493Z,99880.00
2023-04-08T01:12:51.388Z,99891.00
2023-04-08T01:14:28.907Z,99877.00
2023-04-08T01:16:03.024Z,99883.00
2023-04-08T01:17:38.382Z,99882.00
2023-04-08T01:19:30.241Z,99887.00
2023-04-08T01:21:05.828Z,99881.00
2023-04-08T01:22:57.353Z,99883.00
2023-04-08T01:24:40.028Z,99874.00
2023-04-08T01:26:24.225Z,99874.00
2023-04-08T01:28:00.946Z,99885.00
2023-04-08T01:29:36.342Z,99874.00
2023-04-08T01:31:12.528Z,99873.00
2023-04-08T01:32:48.051Z,99885.00
2023-04-08T01:34:23.925Z,99886.00
2023-04-08T01:36:03.073Z,99886.00
2023-04-08T01:37:37.142Z,99887.00
2023-04-08T01:39:11.714Z,99885.00
2023-04-08T01:40:48.082Z,99885.00
2023-04-08T01:42:25.875Z,99883.00
2023-04-08T01:44:00.603Z,99887.00
2023-04-08T01:45:34.172Z,99888.00
2023-04-08T01:47:08.042Z,99895.00
2023-04-08T01:48:42.768Z,99887.00
2023-04-08T01:50:17.559Z,99886.00
2023-04-08T01:51:55.199Z,99892.00
2023-04-08T01:53:28.551Z,99895.00
2023-04-08T01:55:02.427Z,99897.00
2023-04-08T01:56:42.411Z,99897.00
2023-04-08T01:58:21.018Z,99893.00
2023-04-08T02:00:00.008Z,99886.00
2023-04-08T02:01:36.304Z,99884.00
2023-04-08T02:03:14.112Z,99887.00
2023-04-08T02:04:48.087Z,99885.00
2023-04-08T02:06:21.342Z,99894.00
2023-04-08T02:07:54.889Z,99897.00
2023-04-08T02:09:27.279Z,99891.00
2023-04-08T02:11:00.678Z,99882.00
2023-04-08T02:12:35.742Z,99884.00
2023-04-08T02:14:09.510Z,99890.00
2023-04-08T02:15:53.522Z,99888.00
2023-04-08T02:17:37.151Z,99887.00
2023-04-08T02:19:20.814Z,99891.00
2023-04-08T02:21:07.597Z,99897.00
2023-04-08T02:22:48.421Z,99895.00
2023-04-08T02:24:23.294Z,99894.00
2023-04-08T02:25:57.285Z,99899.00
2023-04-08T02:27:36.662Z,99903.00
2023-04-08T02:29:15.969Z,99894.00
2023-04-08T02:30:52.490Z,99896.00
2023-04-08T02:32:27.880Z,99895.00
2023-04-08T02:34:02.054Z,99899.00
2023-04-08T02:35:37.903Z,99894.00
2023-04-08T02:37:14.782Z,99882.00
2023-04-08T02:38:50.664Z,99898.00
2023-04-08T02:40:26.994Z,99898.00
2023-04-08T02:42:00.423Z,99890.00
2023-04-08T02:43:32.844Z,99903.00
2023-04-08T02:45:09.339Z,99907.00
2023-04-08T02:46:42.821Z,99899.00
2023-04-08T02:48:16.100Z,99911.00
2023-04-08T02:49:52.648Z,99907.00
2023-04-08T02:51:26.166Z,99906.00
2023-04-08T02:52:58.700Z,99907.00
2023-04-08T02:54:31.970Z,99905.00
2023-04-08T02:56:05.628Z,99914.00
2023-04-08T02:57:41.369Z,99909.00
2023-04-08T02:59:14.570Z,99907.00
2023-04-08T03:00:49.078Z,99913.00
2023-04-08T03:02:21.496Z,99912.00
2023-04-08T03:03:54.883Z,99909.00
2023-04-08T03:05:28.635Z,99919.00
2023-04-08T03:07:01.771Z,99918.00
2023-04-08T03:08:35.007Z,99927.00
2023-04-08T03:10:09.945Z,99906.00
2023-04-08T03:11:44.693Z,99922.00
2023-04-08T03:13:18.057Z,99913.00
2023-04-08T03:14:51.455Z,99912.00
2023-04-08T03:16:26.233Z,99904.00
2023-04-08T03:17:58.762Z,99921.00
2023-04-08T03:19:32.218Z,99914.00
2023-04-08T03:21:04.604Z,99919.00
2023-04-08T03:22:38.299Z,99915.00
2023-04-08T03:24:11.798Z,99910.00
2023-04-08T03:25:43.995Z,99911.00
2023-04-08T03:27:17.513Z,99914.00
2023-04-08T03:28:50.971Z,99916.00
2023-04-08T03:30:24.625Z,99918.00
2023-04-08T03:31:59.453Z,99915.00
2023-04-08T03:33:33.199Z,99916.00
2023-04-08T03:35:07.568Z,99913.00
2023-04-08T03:36:40.906Z,99913.00
2023-04-08T03:38:14.080Z,99916.00
2023-04-08T03:39:47.469Z,99920.00
2023-04-08T03:41:19.736Z,99919.00
2023-04-08T03:42:52.926Z,99921.00
2023-04-08T03:44:26.208Z,99921.00
2023-04-08T03:45:59.486Z,99918.00
2023-04-08T03:47:34.709Z,99916.00
2023-04-08T03:49:07.376Z,99928.00
2023-04-08T03:50:40.848Z,99910.00
2023-04-08T03:52:14.103Z,99920.00
2023-04-08T03:53:48.141Z,99924.00
2023-04-08T03:55:21.334Z,99929.00
2023-04-08T03:56:54.506Z,99919.00
2023-04-08T03:58:27.783Z,99926.00
2023-04-08T04:00:01.028Z,99928.00
2023-04-08T04:01:34.266Z,99917.00
2023-04-08T04:03:09.240Z,99917.00
2023-04-08T04:04:42.902Z,99928.00
2023-04-08T04:06:16.230Z,99927.00
2023-04-08T04:07:49.451Z,99930.00
2023-04-08T04:09:21.868Z,99924.00
2023-04-08T04:10:55.448Z,99928.00
2023-04-08T04:12:28.595Z,99932.00
2023-04-08T04:14:00.981Z,99935.00
2023-04-08T04:15:34.323Z,99937.00
2023-04-08T04:17:07.637Z,99926.00
2023-04-08T04:18:42.556Z,99926.00
2023-04-08T04:20:15.058Z,99925.00
2023-04-08T04:21:48.188Z,99933.00
2023-04-08T04:23:22.915Z,99930.00
2023-04-08T04:24:56.293Z,99935.00
2023-04-08T04:26:29.497Z,99932.00
2023-04-08T04:28:03.066Z,99939.00
2023-04-08T04:29:36.436Z,99934.00
2023-04-08T04:31:08.696Z,99939.00
2023-04-08T04:32:42.879Z,99938.00
2023-04-08T04:34:17.508Z,99941.00
2023-04-08T04:35:51.156Z,99943.00
2023-04-08T04:37:24.715Z,99946.00
2023-04-08T04:38:56.979Z,99937.00
2023-04-08T04:40:30.257Z,99947.00
2023-04-08T04:42:04.571Z,99941.00
2023-04-08T04:43:38.015Z,99945.00
2023-04-08T04:45:12.398Z,99947.00
2023-04-08T04:46:45.578Z,99951.00
2023-04-08T04:48:18.883Z,99949.00
2023-04-08T04:49:53.950Z,99941.00
2023-04-08T04:51:27.067Z,99946.00
2023-04-08T04:53:00.433Z,99946.00
2023-04-08T04:54:33.804Z,99949.00
2023-04-08T04:56:07.545Z,99943.00
2023-04-08T04:57:40.988Z,99943.00
2023-04-08T04:59:14.262Z,99946.00
2023-04-08T05:00:46.641Z,99944.00
2023-04-08T05:02:19.934Z,99943.00
2023-04-08T05:03:53.163Z,99941.00
2023-04-08T05:05:27.762Z,99942.00
2023-04-08T05:07:01.350Z,99943.00
2023-04-08T05:08:34.496Z,99940.00
2023-04-08T05:10:08.733Z,99951.00
2023-04-08T05:11:41.980Z,99958.00
2023-04-08T05:13:15.432Z,99957.00
2023-04-08T05:14:48.656Z,99955.00
2023-04-08T05:16:21.965Z,99948.00
2023-04-08T05:17:55.365Z,99948.00
2023-04-08T05:19:28.688Z,99956.00
2023-04-08T05:21:03.773Z,99957.00
2023-04-08T05:22:37.022Z,99955.00
2023-04-08T05:24:10.499Z,99954.00
2023-04-08T05:25:43.769Z,99959.00
2023-04-08T05:27:16.946Z,99952.00
2023-04-08T05:28:51.471Z,99950.00
2023-04-08T05:30:25.685Z,99960.00
2023-04-08T05:31:58.979Z,99952.00
2023-04-08T05:33:32.114Z,99961.00
2023-04-08T05:35:06.432Z,99964.00
2023-04-08T05:36:40.888Z,99963.00
2023-04-08T05:38:14.425Z,99959.00
2023-04-08T05:39:47.632Z,99967.00
2023-04-08T05:41:21.265Z,99968.00
2023-04-08T05:42:54.416Z,99965.00
2023-04-08T05:44:27.710Z,99965.00
2023-04-08T05:46:00.861Z,99971.00
2023-04-08T05:47:34.666Z,99965.00
2023-04-08T05:49:07.854Z,99981.00
2023-04-08T05:50:41.219Z,99975.00
2023-04-08T05:52:15.716Z,99985.00
2023-04-08T05:53:48.949Z,99978.00
2023-04-08T05:55:22.116Z,99988.00
2023-04-08T05:56:55.391Z,99984.00
2023-04-08T05:58:28.813Z,99981.00
2023-04-08T06:00:02.054Z,99986.00
2023-04-08T06:01:39.577Z,99981.00
2023-04-08T06:03:13.522Z,99981.00
2023-04-08T06:04:47.363Z,99981.00
2023-04-08T06:06:20.857Z,99987.00
2023-04-08T06:07:55.443Z,99984.00
2023-04-08T06:09:27.944Z,99987.00
2023-04-08T06:11:01.095Z,99975.00
2023-04-08T06:12:38.564Z,99983.00
2023-04-08T06:14:11.748Z,99990.00
2023-04-08T06:15:45.262Z,99987.00
2023-04-08T06:17:18.500Z,99990.00
2023-04-08T06:18:52.075Z,99993.00
2023-04-08T06:20:25.807Z,99987.00
2023-04-08T06:21:59.618Z,99989.00
2023-04-08T06:23:34.172Z,99990.00
2023-04-08T06:25:08.430Z,100000.00
2023-04-08T06:26:41.582Z,100000.00
2023-04-08T06:28:14.789Z,99996.00
2023-04-08T06:29:48.102Z,99994.00
2023-04-08T06:31:21.821Z,100006.00
2023-04-08T06:32:55.073Z,99998.00
2023-04-08T06:34:28.376Z,100005.00
2023-04-08T06:36:05.195Z,100008.00
2023-04-08T06:37:38.805Z,100013.00
2023-04-08T06:39:14.919Z,100010.00
2023-04-08T06:40:48.114Z,100011.00
2023-04-08T06:42:23.016Z,100010.00
2023-04-08T06:44:09.574Z,100019.00
2023-04-08T06:45:46.471Z,100019.00
2023-04-08T06:47:19.646Z,100020.00
2023-04-08T06:48:52.987Z,100034.00
2023-04-08T06:50:26.396Z,100027.00
2023-04-08T06:51:59.805Z,100028.00
2023-04-08T06:53:33.657Z,100037.00
2023-04-08T06:55:09.323Z,100024.00
2023-04-08T06:56:42.879Z,100037.00
2023-04-08T06:58:16.274Z,100033.00
2023-04-08T06:59:49.635Z,100041.00
2023-04-08T07:01:23.967Z,100031.00
2023-04-08T07:02:57.368Z,100023.00
2023-04-08T07:04:30.740Z,100027.00
2023-04-08T07:06:05.306Z,100020.00
2023-04-08T07:07:38.437Z,100037.00
2023-04-08T07:09:12.082Z,100027.00
2023-04-08T07:10:47.096Z,100031.00
2023-04-08T07:12:20.368Z,100037.00
2023-04-08T07:13:53.523Z,100039.00
2023-04-08T07:15:26.859Z,100035.00
2023-04-08T07:17:00.358Z,100039.00
2023-04-08T07:18:33.653Z,100037.00
2023-04-08T07:20:08.638Z,100045.00
2023-04-08T07:21:41.672Z,100049.00
2023-04-08T07:23:14.962Z,100039.00
2023-04-08T07:24:49.984Z,100042.00
2023-04-08T07:26:24.648Z,100048.00
2023-04-08T07:27:58.143Z,100043.00
2023-04-08T07:29:31.501Z,100049.00
2023-04-08T07:31:13.582Z,100049.00
2023-04-08T07:32:47.078Z,100043.00
2023-04-08T07:34:20.502Z,100049.00
2023-04-08T07:35:53.677Z,100050.00
2023-04-08T07:37:27.328Z,100037.00
2023-04-08T07:39:00.495Z,100045.00
2023-04-08T07:40:33.734Z,100049.00
2023-04-08T07:42:08.409Z,100047.00
2023-04-08T07:43:41.641Z,100053.00
2023-04-08T07:45:14.782Z,100048.00
2023-04-08T07:46:51.786Z,100053.00
2023-04-08T07:48:25.226Z,100052.00
2023-04-08T07:49:58.648Z,100055.00
2023-04-08T07:51:31.814Z,100047.00
2023-04-08T07:53:05.648Z,100056.00
2023-04-08T07:54:39.680Z,100052.00
2023-04-08T07:56:14.801Z,100058.00
2023-04-08T07:57:49.376Z,100057.00
2023-04-08T07:59:22.684Z,100052.00
2023-04-08T08:00:57.241Z,100051.00
2023-04-08T08:02:30.526Z,100066.00
2023-04-08T08:04:04.499Z,100070.00
2023-04-08T08:05:38.298Z,100076.00
2023-04-08T08:07:11.535Z,100076.00
2023-04-08T08:08:45.671Z,100084.00
2023-04-08T08:10:19.190Z,100081.00
2023-04-08T08:11:52.488Z,100085.00
2023-04-08T08:13:27.062Z,100080.00
2023-04-08T08:15:00.527Z,100087.00
2023-04-08T08:16:33.783Z,100089.00
2023-04-08T08:18:07.133Z,100090.00
2023-04-08T08:19:40.303Z,100079.00
2023-04-08T08:21:13.752Z,100078.00
2023-04-08T08:22:56.804Z,100092.00
2023-04-08T08:24:31.245Z,100090.00
2023-04-08T08:26:06.845Z,100097.00
2023-04-08T08:27:42.062Z,100098.00
2023-04-08T08:29:16.606Z,100096.00
2023-04-08T08:30:49.781Z,100102.00
2023-04-08T08:32:22.991Z,100107.00
2023-04-08T08:33:56.749Z,100105.00
2023-04-08T08:35:29.962Z,100098.00
2023-04-08T08:37:03.194Z,100104.00
2023-04-08T08:38:36.440Z,100102.00
2023-04-08T08:40:10.982Z,100105.00
2023-04-08T08:41:44.159Z,100112.00
2023-04-08T08:43:17.412Z,100106.00
2023-04-08T08:44:52.438Z,100113.00
2023-04-08T08:46:25.820Z,100113.00
2023-04-08T08:47:58.127Z,100114.00
2023-04-08T08:49:31.310Z,100118.00
2023-04-08T08:51:10.556Z,100119.00
2023-04-08T08:52:50.332Z,100112.00
2023-04-08T08:54:23.554Z,100120.00
2023-04-08T08:57:32.994Z,100122.00
2023-04-08T08:59:06.386Z,100128.00
2023-04-08T09:00:44.831Z,100134.00
2023-04-08T09:02:30.186Z,100127.00
2023-04-08T09:04:14.168Z,100125.00
2023-04-08T09:05:52.951Z,100128.00
2023-04-08T09:07:27.841Z,100129.00
2023-04-08T09:09:01.435Z,100127.00
2023-04-08T09:10:34.620Z,100131.00
2023-04-08T09:12:07.828Z,100133.00
2023-04-08T09:13:41.442Z,100130.00
2023-04-08T09:15:14.815Z,100129.00
2023-04-08T09:16:49.894Z,100130.00
2023-04-08T09:18:23.487Z,100134.00
2023-04-08T09:20:11.565Z,100131.00
2023-04-08T09:21:45.018Z,100128.00
2023-04-08T09:23:18.294Z,100127.00
2023-04-08T09:24:51.788Z,100122.00
2023-04-08T09:26:27.296Z,100124.00
2023-04-08T09:28:02.101Z,100119.00
2023-04-08T09:29:38.315Z,100129.00
2023-04-08T09:31:21.738Z,100130.00
2023-04-08T09:32:59.078Z,100127.00
2023-04-08T09:34:34.384Z,100124.00
2023-04-08T09:36:08.389Z,100125.00
2023-04-08T09:37:41.636Z,100128.00
2023-04-08T09:39:14.900Z,100127.00
2023-04-08T09:40:48.153Z,100124.00
2023-04-08T09:42:23.170Z,100125.00
2023-04-08T09:43:58.674Z,100130.00
2023-04-08T09:45:35.464Z,100127.00
2023-04-08T09:47:18.905Z,100141.00
2023-04-08T09:49:03.124Z,100134.00
2023-04-08T09:50:48.481Z,100131.00
2023-04-08T09:52:31.232Z,100146.00
2023-04-08T09:54:13.360Z,100145.00
2023-04-08T09:55:56.394Z,100150.00
2023-04-08T09:57:41.513Z,100139.00
2023-04-08T09:59:18.561Z,100154.00
2023-04-08T10:00:55.929Z,100154.00
2023-04-08T10:02:34.862Z,100154.00
2023-04-08T10:04:16.345Z,100146.00
2023-04-08T10:05:53.348Z,100159.00
2023-04-08T10:07:26.827Z,100152.00
2023-04-08T10:09:02.534Z,100153.00
2023-04-08T10:10:39.240Z,100152.00
2023-04-08T10:12:12.515Z,100155.00
2023-04-08T10:13:46.316Z,100149.00
2023-04-08T10:15:27.534Z,100155.00
2023-04-08T10:17:27.245Z,100155.00
2023-04-08T10:19:00.462Z,100160.00
2023-04-08T10:20:46.022Z,100159.00
2023-04-08T10:22:49.026Z,100157.00
2023-04-08T10:24:25.542Z,100163.00
2023-04-08T10:25:58.680Z,100164.00
2023-04-08T10:27:41.616Z,100163.00
2023-04-08T10:29:34.601Z,100163.00
2023-04-08T10:31:07.795Z,100159.00
2023-04-08T10:32:42.322Z,100162.00
2023-04-08T10:34:19.297Z,100156.00
2023-04-08T10:36:02.767Z,100159.00
2023-04-08T10:37:36.153Z,100155.00
2023-04-08T10:39:10.378Z,100154.00
2023-04-08T10:40:45.882Z,100145.00
2023-04-08T10:42:19.031Z,100147.00
2023-04-08T10:43:52.409Z,100146.00
2023-04-08T10:45:26.517Z,100141.00
2023-04-08T10:47:00.175Z,100137.00
2023-04-08T10:48:33.465Z,100142.00
2023-04-08T10:50:15.511Z,100133.00
2023-04-08T10:51:50.470Z,100141.00
2023-04-08T10:53:30.323Z,100134.00
2023-04-08T10:55:04.743Z,100147.00
2023-04-08T10:56:45.487Z,100144.00
2023-04-08T10:58:18.519Z,100145.00
2023-04-08T10:59:51.772Z,100144.00
2023-04-08T11:01:25.224Z,100147.00
2023-04-08T11:03:02.303Z,100140.00
2023-04-08T11:04:42.838Z,100144.00
2023-04-08T11:06:17.406Z,100145.00
2023-04-08T11:07:53.411Z,100143.00
2023-04-08T11:09:26.672Z,100136.00
2023-04-08T11:11:01.262Z,100136.00
2023-04-08T11:12:34.609Z,100140.00
2023-04-08T11:14:08.273Z,100144.00
2023-04-08T11:15:43.343Z,100141.00
2023-04-08T11:17:17.352Z,100142.00
2023-04-08T11:18:52.214Z,100139.00
2023-04-08T11:20:26.977Z,100147.00
2023-04-08T11:22:01.201Z,100149.00
2023-04-08T11:23:36.458Z,100153.00
2023-04-08T11:25:10.721Z,100157.00
2023-04-08T11:26:44.360Z,100151.00
2023-04-08T11:28:19.886Z,100140.00
2023-04-08T11:29:54.901Z,100142.00
2023-04-08T11:31:29.509Z,100149.00
2023-04-08T11:33:02.963Z,100145.00
2023-04-08T11:34:41.571Z,100140.00
2023-04-08T11:36:15.383Z,100142.00
2023-04-08T11:37:49.748Z,100142.00
2023-04-08T11:39:26.349Z,100132.00
2023-04-08T11:41:01.196Z,100136.00
2023-04-08T11:42:34.788Z,100138.00
2023-04-08T11:44:08.768Z,100138.00
2023-04-08T11:45:43.634Z,100131.00
2023-04-08T11:47:16.938Z,100143.00
2023-04-08T11:49:02.223Z,100133.00
2023-04-08T11:50:35.497Z,100142.00
2023-04-08T11:52:08.756Z,100137.00
2023-04-08T11:53:42.276Z,100138.00
2023-04-08T11:55:27.058Z,100140.00
2023-04-08T11:57:03.194Z,100134.00
2023-04-08T11:58:37.151Z,100142.00
2023-04-08T12:00:11.340Z,100134.00
2023-04-08T12:01:44.649Z,100148.00
2023-04-08T12:03:18.044Z,100150.00
2023-04-08T12:04:51.323Z,100142.00
2023-04-08T12:06:27.614Z,100141.00
2023-04-08T12:08:00.926Z,100147.00
2023-04-08T12:09:34.094Z,100153.00
2023-04-08T12:11:19.042Z,100151.00
2023-04-08T12:12:52.995Z,100148.00
2023-04-08T12:14:28.205Z,100142.00
2023-04-08T12:16:02.072Z,100152.00
2023-04-08T12:17:36.049Z,100144.00
2023-04-08T12:19:09.289Z,100147.00
2023-04-08T12:20:42.460Z,100139.00
2023-04-08T12:22:16.369Z,100150.00
2023-04-08T12:23:49.771Z,100143.00
2023-04-08T12:25:23.298Z,100146.00
2023-04-08T12:26:58.229Z,100150.00
2023-04-08T12:28:31.700Z,100152.00
2023-04-08T12:30:06.428Z,100154.00
2023-04-08T12:31:39.690Z,100156.00
2023-04-08T12:33:12.902Z,100155.00
2023-04-08T12:34:46.350Z,100149.00
2023-04-08T12:36:19.738Z,100147.00
2023-04-08T12:37:53.104Z,100153.00
2023-04-08T12:39:26.349Z,100143.00
2023-04-08T12:40:59.584Z,100155.00
2023-04-08T12:42:34.838Z,100151.00
2023-04-08T12:44:08.193Z,100154.00
2023-04-08T12:45:41.457Z,100152.00
2023-04-08T12:47:14.936Z,100146.00
2023-04-08T12:48:48.681Z,100141.00
2023-04-08T12:50:23.479Z,100151.00
2023-04-08T12:51:56.721Z,100151.00
2023-04-08T12:53:29.958Z,100148.00
2023-04-08T12:55:03.194Z,100147.00
2023-04-08T12:56:36.443Z,100155.00
2023-04-08T12:58:11.068Z,100147.00
2023-04-08T12:59:44.416Z,100147.00
2023-04-08T13:01:17.683Z,100152.00
2023-04-08T13:02:51.193Z,100154.00
2023-04-08T13:04:24.410Z,100151.00
2023-04-08T13:05:58.937Z,100144.00
2023-04-08T13:07:32.161Z,100153.00
2023-04-08T13:09:05.373Z,100147.00
2023-04-08T13:10:38.615Z,100146.00
2023-04-08T13:12:12.106Z,100147.00
2023-04-08T13:13:47.345Z,100140.00
2023-04-08T13:15:21.165Z,100145.00
2023-04-08T13:16:54.514Z,100150.00
2023-04-08T13:18:27.884Z,100144.00
2023-04-08T13:20:01.300Z,100146.00
2023-04-08T13:21:34.671Z,100151.00
2023-04-08T13:23:08.108Z,100148.00
2023-04-08T13:24:41.434Z,100148.00
2023-04-08T13:26:15.194Z,100147.00
2023-04-08T13:27:48.533Z,100146.00
2023-04-08T13:29:23.169Z,100142.00
2023-04-08T13:30:56.593Z,100146.00
2023-04-08T13:32:29.948Z,100144.00
2023-04-08T13:34:03.364Z,100148.00
2023-04-08T13:35:37.000Z,100151.00
2023-04-08T13:37:10.997Z,100153.00
2023-04-08T13:38:45.664Z,100151.00
2023-04-08T13:40:19.310Z,100149.00
2023-04-08T13:41:52.732Z,100153.00
2023-04-08T13:43:26.347Z,100145.00
2023-04-08T13:45:01.387Z,100145.00
2023-04-08T13:46:34.798Z,100143.00
2023-04-08T13:48:08.185Z,100152.00
2023-04-08T13:49:41.866Z,100149.00
2023-04-08T13:51:15.128Z,100148.00
2023-04-08T13:52:48.487Z,100155.00
2023-04-08T13:54:21.953Z,100159.00
2023-04-08T13:55:57.104Z,100160.00
2023-04-08T13:57:30.589Z,100165.00
2023-04-08T13:59:04.134Z,100167.00
2023-04-08T14:00:38.796Z,100165.00
2023-04-08T14:02:13.090Z,100168.00
2023-04-08T14:03:46.517Z,100162.00
2023-04-08T14:05:20.041Z,100171.00
2023-04-08T14:06:53.411Z,100171.00
2023-04-08T14:08:26.745Z,100174.00
2023-04-08T14:09:59.907Z,100174.00
2023-04-08T14:11:33.131Z,100164.00
2023-04-08T14:13:06.565Z,100165.00
2023-04-08T14:14:39.882Z,100170.00
2023-04-08T14:16:15.336Z,100160.00
2023-04-08T14:17:49.643Z,100168.00
2023-04-08T14:19:23.025Z,100165.00
2023-04-08T14:20:56.443Z,100163.00
2023-04-08T14:22:29.974Z,100161.00
2023-04-08T14:24:03.428Z,100153.00
2023-04-08T14:25:36.727Z,100152.00
2023-04-08T14:27:10.227Z,100156.00
2023-04-08T14:28:43.400Z,100153.00
2023-04-08T14:30:16.831Z,100152.00
2023-04-08T14:31:51.570Z,100146.00
2023-04-08T14:33:24.909Z,100149.00
2023-04-08T14:34:58.578Z,100145.00
2023-04-08T14:36:32.876Z,100146.00
2023-04-08T14:38:06.546Z,100142.00
2023-04-08T14:39:39.897Z,100149.00
2023-04-08T14:41:13.160Z,100144.00
2023-04-08T14:42:46.433Z,100145.00
2023-04-08T14:44:19.631Z,100147.00
2023-04-08T14:45:52.907Z,100143.00
2023-04-08T14:47:27.599Z,100145.00
2023-04-08T14:49:00.926Z,100150.00
2023-04-08T14:50:34.146Z,100145.00
2023-04-08T14:52:07.438Z,100149.00
2023-04-08T14:53:40.772Z,100141.00
2023-04-08T14:55:14.092Z,100138.00
2023-04-08T14:56:47.355Z,100147.00
2023-04-08T14:58:21.093Z,100147.00
2023-04-08T14:59:54.460Z,100149.00
2023-04-08T15:01:28.747Z,100154.00
2023-04-08T15:03:03.910Z,100148.00
2023-04-08T15:04:37.371Z,100149.00
2023-04-08T15:06:11.045Z,100148.00
2023-04-08T15:07:44.538Z,100155.00
2023-04-08T15:09:17.909Z,100161.00
2023-04-08T15:10:51.346Z,100162.00
2023-04-08T15:12:25.656Z,100154.00
2023-04-08T15:13:58.980Z,100151.00
2023-04-08T15:15:32.300Z,100154.00
2023-04-08T15:17:05.669Z,100153.00
2023-04-08T15:18:40.993Z,100152.00
2023-04-08T15:20:14.524Z,100154.00
2023-04-08T15:21:47.936Z,100158.00
2023-04-08T15:23:21.974Z,100154.00
2023-04-08T15:24:55.829Z,100153.00
2023-04-08T15:26:29.205Z,100161.00
2023-04-08T15:28:03.475Z,100162.00
2023-04-08T15:29:36.834Z,100161.00
2023-04-08T15:31:10.211Z,100162.00
2023-04-08T15:32:45.838Z,100164.00
2023-04-08T15:34:20.485Z,100160.00
2023-04-08T15:35:54.277Z,100163.00
2023-04-08T15:37:27.814Z,100167.00
2023-04-08T15:39:01.526Z,100163.00
2023-04-08T15:40:35.032Z,100161.00
2023-04-08T15:42:08.677Z,100160.00
2023-04-08T15:43:42.144Z,100164.00
2023-04-08T15:45:15.772Z,100163.00
2023-04-08T15:46:49.050Z,100166.00
2023-04-08T15:48:22.423Z,100163.00
2023-04-08T15:49:57.260Z,100162.00
2023-04-08T15:51:30.439Z,100166.00
2023-04-08T15:53:03.704Z,100162.00
2023-04-08T15:54:37.155Z,100158.00
2023-04-08T15:56:14.808Z,100152.00
2023-04-08T15:57:48.463Z,100158.00
2023-04-08T15:59:21.733Z,100164.00
2023-04-08T16:00:55.710Z,100159.00
2023-04-08T16:02:29.513Z,100158.00
2023-04-08T16:04:03.229Z,100164.00
2023-04-08T16:05:39.626Z,100159.00
2023-04-08T16:07:13.420Z,100158.00
2023-04-08T16:08:47.076Z,100159.00
2023-04-08T16:10:20.621Z,100164.00
2023-04-08T16:11:54.415Z,100166.00
2023-04-08T16:13:28.874Z,100165.00
2023-04-08T16:15:02.782Z,100165.00
2023-04-08T16:16:38.245Z,100166.00
2023-04-08T16:18:11.840Z,100163.00
2023-04-08T16:19:45.077Z,100165.00
2023-04-08T16:21:19.639Z,100163.00
2023-04-08T16:22:52.917Z,100164.00
2023-04-08T16:24:26.418Z,100166.00
2023-04-08T16:25:59.875Z,100163.00
2023-04-08T16:27:33.018Z,100163.00
2023-04-08T16:29:06.232Z,100163.00
2023-04-08T16:30:42.853Z,100165.00
2023-04-08T16:32:16.079Z,100170.00
2023-04-08T16:33:50.060Z,100165.00
2023-04-08T16:35:23.971Z,100165.00
2023-04-08T16:36:58.781Z,100168.00
2023-04-08T16:38:32.980Z,100169.00
2023-04-08T16:40:08.209Z,100170.00
2023-04-08T16:41:41.432Z,100170.00
2023-04-08T16:43:15.837Z,100172.00
2023-04-08T16:44:49.119Z,100183.00
2023-04-08T16:46:22.333Z,100172.00
2023-04-08T16:47:55.686Z,100173.00
2023-04-08T16:49:28.972Z,100172.00
2023-04-08T16:51:05.638Z,100175.00
2023-04-08T16:52:40.514Z,100173.00
2023-04-08T16:54:13.897Z,100178.00
2023-04-08T16:55:47.042Z,100171.00
2023-04-08T16:57:20.327Z,100174.00
2023-04-08T16:58:53.798Z,100173.00
2023-04-08T17:00:27.049Z,100176.00
2023-04-08T17:02:00.335Z,100173.00
2023-04-08T17:03:34.476Z,100172.00
2023-04-08T17:05:08.626Z,100181.00
2023-04-08T17:06:42.298Z,100177.00
2023-04-08T17:08:18.611Z,100180.00
2023-04-08T17:09:52.788Z,100181.00
2023-04-08T17:11:26.427Z,100179.00
2023-04-08T17:13:00.351Z,100181.00
2023-04-08T17:14:34.880Z,100180.00
2023-04-08T17:16:13.268Z,100172.00
2023-04-08T17:17:47.785Z,100183.00
2023-04-08T17:19:21.375Z,100178.00
2023-04-08T17:20:54.567Z,100185.00
2023-04-08T17:22:28.181Z,100175.00
2023-04-08T17:24:02.738Z,100180.00
2023-04-08T17:25:36.261Z,100196.00
2023-04-08T17:27:09.715Z,100185.00
2023-04-08T17:28:43.378Z,100174.00
2023-04-08T17:30:16.612Z,100177.00
2023-04-08T17:31:49.904Z,100180.00
2023-04-08T17:33:23.195Z,100181.00
2023-04-08T17:34:56.909Z,100176.00
2023-04-08T17:36:31.252Z,100182.00
2023-04-08T17:38:04.576Z,100187.00
2023-04-08T17:39:40.850Z,100185.00
2023-04-08T17:41:21.578Z,100183.00
2023-04-08T17:43:03.505Z,100190.00
2023-04-08T17:44:37.838Z,100189.00
2023-04-08T17:46:11.145Z,100187.00
2023-04-08T17:47:44.500Z,100182.00
2023-04-08T17:49:18.540Z,100183.00
2023-04-08T17:51:00.510Z,100182.00
2023-04-08T17:52:33.850Z,100181.00
2023-04-08T17:54:07.422Z,100182.00
2023-04-08T17:55:42.053Z,100189.00
2023-04-08T17:57:15.482Z,100189.00
2023-04-08T17:58:48.855Z,100184.00
2023-04-08T18:00:22.382Z,100189.00
2023-04-08T18:01:56.060Z,100187.00
2023-04-08T18:03:29.465Z,100187.00
2023-04-08T18:05:03.260Z,100192.00
2023-04-08T18:06:36.723Z,100186.00
2023-04-08T18:08:09.997Z,100193.00
2023-04-08T18:09:43.316Z,100186.00
2023-04-08T18:11:17.928Z,100186.00
2023-04-08T18:13:03.734Z,100188.00